LNKJL ENBR-ENBR
Flight info
| Callsign | LNKJL |
|---|---|
| Flight time | 0h 20m |
| Altitude | 1000 |
| Route | VFR FLIGHT AROUND BERGEN |
| Aircraft | C152/L-S/L |
Departure
| Time | 2026-05-04 17:44 |
|---|---|
| Airport | Bergen Airport, Flesland (ENBR) |
Arrival
| Time | 2026-05-04 18:05 |
|---|---|
| Airport | Bergen Airport, Flesland (ENBR) |
| Time | Latitude | Longitude | Altitude | Speed | Heading |
|---|---|---|---|---|---|
| 2026-05-04 17:23 | 60.29964 | 5.22655 | 153 ft | 0 kts | 285° |
| 2026-05-04 17:24 | 60.30089 | 5.22707 | 154 ft | 0 kts | 268° |
| 2026-05-04 17:35 | 60.30091 | 5.22744 | 154 ft | 1 kts | 197° |
| 2026-05-04 17:35 | 60.30072 | 5.22779 | 154 ft | 5 kts | 185° |
| 2026-05-04 17:35 | 60.30029 | 5.22750 | 154 ft | 8 kts | 198° |
| 2026-05-04 17:36 | 60.29964 | 5.22709 | 153 ft | 11 kts | 196° |
| 2026-05-04 17:36 | 60.29888 | 5.22661 | 153 ft | 12 kts | 198° |
| 2026-05-04 17:36 | 60.29819 | 5.22590 | 152 ft | 11 kts | 218° |
| 2026-05-04 17:36 | 60.29770 | 5.22473 | 152 ft | 11 kts | 244° |
| 2026-05-04 17:37 | 60.29752 | 5.22343 | 152 ft | 9 kts | 265° |
| 2026-05-04 17:37 | 60.29744 | 5.22229 | 152 ft | 8 kts | 259° |
| 2026-05-04 17:37 | 60.29733 | 5.22114 | 152 ft | 9 kts | 261° |
| 2026-05-04 17:37 | 60.29709 | 5.22019 | 152 ft | 8 kts | 194° |
| 2026-05-04 17:38 | 60.29645 | 5.22035 | 151 ft | 11 kts | 171° |
| 2026-05-04 17:38 | 60.29561 | 5.22063 | 150 ft | 13 kts | 169° |
| 2026-05-04 17:38 | 60.29468 | 5.22097 | 150 ft | 14 kts | 171° |
| 2026-05-04 17:38 | 60.29367 | 5.22127 | 149 ft | 15 kts | 170° |
| 2026-05-04 17:39 | 60.29148 | 5.22204 | 147 ft | 16 kts | 170° |
| 2026-05-04 17:39 | 60.29040 | 5.22239 | 146 ft | 16 kts | 172° |
| 2026-05-04 17:39 | 60.28951 | 5.22264 | 145 ft | 12 kts | 184° |
| 2026-05-04 17:40 | 60.28930 | 5.22241 | 145 ft | 0 kts | 254° |
| 2026-05-04 17:40 | 60.28926 | 5.22209 | 145 ft | 7 kts | 260° |
| 2026-05-04 17:40 | 60.28922 | 5.22155 | 144 ft | 0 kts | 260° |
| 2026-05-04 17:43 | 60.28913 | 5.22032 | 143 ft | 16 kts | 270° |
| 2026-05-04 17:43 | 60.29010 | 5.21922 | 145 ft | 34 kts | 351° |
| 2026-05-04 17:43 | 60.29384 | 5.21818 | 203 ft | 65 kts | 340° |
| 2026-05-04 17:43 | 60.29841 | 5.21552 | 336 ft | 68 kts | 335° |
| 2026-05-04 17:44 | 60.30284 | 5.21316 | 490 ft | 70 kts | 337° |
| 2026-05-04 17:44 | 60.30764 | 5.21237 | 678 ft | 73 kts | 5° |
| 2026-05-04 17:44 | 60.31164 | 5.22057 | 770 ft | 94 kts | 56° |
| 2026-05-04 17:44 | 60.31421 | 5.23287 | 860 ft | 96 kts | 62° |
| 2026-05-04 17:45 | 60.31631 | 5.24557 | 988 ft | 92 kts | 62° |
| 2026-05-04 17:45 | 60.31872 | 5.25760 | 1045 ft | 94 kts | 57° |
| 2026-05-04 17:45 | 60.32164 | 5.26903 | 1166 ft | 88 kts | 44° |
| 2026-05-04 17:45 | 60.32500 | 5.27934 | 1200 ft | 88 kts | 46° |
| 2026-05-04 17:46 | 60.32884 | 5.28873 | 1172 ft | 83 kts | 34° |
| 2026-05-04 17:46 | 60.33269 | 5.29715 | 1240 ft | 80 kts | 34° |
| 2026-05-04 17:46 | 60.33638 | 5.30568 | 1259 ft | 83 kts | 41° |
| 2026-05-04 17:46 | 60.34001 | 5.31469 | 1201 ft | 82 kts | 40° |
| 2026-05-04 17:47 | 60.34370 | 5.32350 | 1158 ft | 85 kts | 37° |
| 2026-05-04 17:47 | 60.34697 | 5.33381 | 1074 ft | 89 kts | 52° |
| 2026-05-04 17:47 | 60.34973 | 5.34518 | 1157 ft | 93 kts | 57° |
| 2026-05-04 17:47 | 60.35223 | 5.35690 | 1325 ft | 87 kts | 51° |
| 2026-05-04 17:48 | 60.35660 | 5.36427 | 1427 ft | 82 kts | 12° |
| 2026-05-04 17:48 | 60.36204 | 5.36631 | 1567 ft | 79 kts | 359° |
| 2026-05-04 17:48 | 60.36751 | 5.36666 | 1672 ft | 80 kts | 355° |
| 2026-05-04 17:48 | 60.37312 | 5.36651 | 1701 ft | 85 kts | 352° |
| 2026-05-04 17:49 | 60.37892 | 5.36560 | 1884 ft | 81 kts | 350° |
| 2026-05-04 17:49 | 60.38460 | 5.36415 | 2017 ft | 82 kts | 348° |
| 2026-05-04 17:49 | 60.39017 | 5.36256 | 1994 ft | 82 kts | 348° |
| 2026-05-04 17:49 | 60.39580 | 5.36076 | 1928 ft | 81 kts | 345° |
| 2026-05-04 17:50 | 60.40001 | 5.35455 | 1960 ft | 83 kts | 283° |
| 2026-05-04 17:50 | 60.39657 | 5.34411 | 1837 ft | 107 kts | 217° |
| 2026-05-04 17:50 | 60.38979 | 5.33650 | 1616 ft | 113 kts | 213° |
| 2026-05-04 17:50 | 60.38218 | 5.33503 | 1508 ft | 116 kts | 163° |
| 2026-05-04 17:51 | 60.37503 | 5.34288 | 1341 ft | 123 kts | 154° |
| 2026-05-04 17:51 | 60.36759 | 5.35022 | 1262 ft | 116 kts | 158° |
| 2026-05-04 17:51 | 60.36044 | 5.35728 | 1286 ft | 111 kts | 154° |
| 2026-05-04 17:51 | 60.35415 | 5.36555 | 1366 ft | 106 kts | 137° |
| 2026-05-04 17:52 | 60.34879 | 5.37656 | 1308 ft | 113 kts | 141° |
| 2026-05-04 17:52 | 60.34395 | 5.38702 | 1220 ft | 96 kts | 122° |
| 2026-05-04 17:52 | 60.34400 | 5.39961 | 1255 ft | 93 kts | 54° |
| 2026-05-04 17:52 | 60.34779 | 5.40987 | 1303 ft | 90 kts | 47° |
| 2026-05-04 17:53 | 60.35186 | 5.41971 | 1276 ft | 92 kts | 40° |
| 2026-05-04 17:53 | 60.35601 | 5.42967 | 1300 ft | 99 kts | 64° |
| 2026-05-04 17:53 | 60.35461 | 5.44252 | 1267 ft | 104 kts | 153° |
| 2026-05-04 17:53 | 60.35059 | 5.43563 | 1133 ft | 97 kts | 271° |
| 2026-05-04 17:54 | 60.34983 | 5.42265 | 1097 ft | 92 kts | 253° |
| 2026-05-04 17:54 | 60.34619 | 5.41182 | 1034 ft | 96 kts | 227° |
| 2026-05-04 17:54 | 60.34297 | 5.40084 | 1056 ft | 89 kts | 261° |
| 2026-05-04 17:54 | 60.34462 | 5.38933 | 1018 ft | 88 kts | 314° |
| 2026-05-04 17:55 | 60.35018 | 5.38782 | 1067 ft | 87 kts | 25° |
| 2026-05-04 17:55 | 60.35487 | 5.39325 | 1318 ft | 72 kts | 18° |
| 2026-05-04 17:55 | 60.35975 | 5.39491 | 1518 ft | 70 kts | 336° |
| 2026-05-04 17:55 | 60.36447 | 5.39014 | 1582 ft | 83 kts | 322° |
| 2026-05-04 17:56 | 60.36822 | 5.38084 | 1569 ft | 93 kts | 300° |
| 2026-05-04 17:56 | 60.37098 | 5.36905 | 1575 ft | 92 kts | 294° |
| 2026-05-04 17:56 | 60.37364 | 5.35818 | 1606 ft | 85 kts | 314° |
| 2026-05-04 17:56 | 60.37890 | 5.35427 | 1647 ft | 84 kts | 352° |
| 2026-05-04 17:57 | 60.38468 | 5.35420 | 1727 ft | 81 kts | 355° |
| 2026-05-04 17:57 | 60.39037 | 5.35438 | 1718 ft | 83 kts | 355° |
| 2026-05-04 17:57 | 60.39600 | 5.35467 | 1832 ft | 78 kts | 351° |
| 2026-05-04 17:57 | 60.40160 | 5.35384 | 1855 ft | 83 kts | 353° |
| 2026-05-04 17:58 | 60.40509 | 5.34870 | 1896 ft | 91 kts | 253° |
| 2026-05-04 17:58 | 60.39897 | 5.34264 | 1857 ft | 111 kts | 194° |
| 2026-05-04 17:58 | 60.39158 | 5.34277 | 1516 ft | 107 kts | 186° |
| 2026-05-04 17:58 | 60.38460 | 5.34283 | 1305 ft | 94 kts | 189° |
| 2026-05-04 17:59 | 60.37824 | 5.34217 | 1119 ft | 88 kts | 192° |
| 2026-05-04 17:59 | 60.37254 | 5.34101 | 1024 ft | 81 kts | 191° |
| 2026-05-04 17:59 | 60.36036 | 5.34487 | 1060 ft | 98 kts | 171° |
| 2026-05-04 18:00 | 60.35366 | 5.34807 | 1157 ft | 100 kts | 168° |
| 2026-05-04 18:00 | 60.34669 | 5.35097 | 1222 ft | 104 kts | 173° |
| 2026-05-04 18:00 | 60.33936 | 5.35418 | 1242 ft | 110 kts | 168° |
| 2026-05-04 18:00 | 60.33243 | 5.36009 | 1231 ft | 108 kts | 144° |
| 2026-05-04 18:01 | 60.32591 | 5.36709 | 1289 ft | 106 kts | 165° |
| 2026-05-04 18:01 | 60.31859 | 5.36869 | 1300 ft | 107 kts | 188° |
| 2026-05-04 18:01 | 60.31138 | 5.36682 | 1381 ft | 103 kts | 201° |
| 2026-05-04 18:02 | 60.29689 | 5.36370 | 1472 ft | 109 kts | 189° |
| 2026-05-04 18:02 | 60.28928 | 5.36339 | 1482 ft | 104 kts | 189° |
| 2026-05-04 18:02 | 60.28265 | 5.36162 | 1557 ft | 93 kts | 197° |
| 2026-05-04 18:02 | 60.27835 | 5.35931 | 1485 ft | 101 kts | 211° |
| 2026-05-04 18:03 | 60.27250 | 5.35191 | 1448 ft | 97 kts | 232° |
| 2026-05-04 18:03 | 60.26868 | 5.34112 | 1359 ft | 93 kts | 253° |
| 2026-05-04 18:03 | 60.26425 | 5.32659 | 1277 ft | 93 kts | 246° |
| 2026-05-04 18:03 | 60.26065 | 5.31579 | 1248 ft | 93 kts | 246° |
| 2026-05-04 18:04 | 60.25835 | 5.30837 | 1234 ft | 92 kts | 249° |
| 2026-05-04 18:04 | 60.25536 | 5.29700 | 1180 ft | 92 kts | 253° |
| 2026-05-04 18:04 | 60.25048 | 5.27434 | 1120 ft | 88 kts | 259° |
| 2026-05-04 18:05 | 60.25005 | 5.26279 | 1008 ft | 77 kts | 290° |
| 2026-05-04 18:05 | 60.25242 | 5.25604 | 844 ft | 45 kts | 311° |
| 2026-05-04 18:05 | 60.25434 | 5.25124 | 760 ft | 44 kts | 310° |
| 2026-05-04 18:05 | 60.25633 | 5.24587 | 744 ft | 57 kts | 312° |
| 2026-05-04 18:06 | 60.26197 | 5.23005 | 677 ft | 50 kts | 321° |
| 2026-05-04 18:06 | 60.26493 | 5.22744 | 543 ft | 48 kts | 345° |
| 2026-05-04 18:06 | 60.26818 | 5.22636 | 487 ft | 44 kts | 348° |
| 2026-05-04 18:07 | 60.27112 | 5.22550 | 419 ft | 43 kts | 345° |
| 2026-05-04 18:07 | 60.27404 | 5.22487 | 362 ft | 42 kts | 347° |
| 2026-05-04 18:07 | 60.27701 | 5.22358 | 315 ft | 45 kts | 341° |
| 2026-05-04 18:07 | 60.28005 | 5.22267 | 254 ft | 42 kts | 346° |
| 2026-05-04 18:08 | 60.28289 | 5.22174 | 205 ft | 42 kts | 348° |
| 2026-05-04 18:08 | 60.28573 | 5.22076 | 148 ft | 37 kts | 348° |
| 2026-05-04 18:08 | 60.28752 | 5.22011 | 144 ft | 20 kts | 350° |
| 2026-05-04 18:08 | 60.28870 | 5.21973 | 144 ft | 13 kts | 3° |
| 2026-05-04 18:09 | 60.28929 | 5.22217 | 145 ft | 9 kts | 65° |
| 2026-05-04 18:09 | 60.29039 | 5.22240 | 146 ft | 10 kts | 351° |
| 2026-05-04 18:10 | 60.29110 | 5.22217 | 146 ft | 11 kts | 351° |
| 2026-05-04 18:10 | 60.29180 | 5.22194 | 147 ft | 10 kts | 351° |
| 2026-05-04 18:10 | 60.29245 | 5.22171 | 148 ft | 9 kts | 348° |
| 2026-05-04 18:10 | 60.29304 | 5.22150 | 148 ft | 8 kts | 352° |
| 2026-05-04 18:11 | 60.29354 | 5.22133 | 149 ft | 6 kts | 351° |
| 2026-05-04 18:11 | 60.29418 | 5.22111 | 149 ft | 11 kts | 351° |
| 2026-05-04 18:11 | 60.29487 | 5.22089 | 150 ft | 10 kts | 351° |
| 2026-05-04 18:11 | 60.29559 | 5.22065 | 150 ft | 10 kts | 352° |
| 2026-05-04 18:12 | 60.29627 | 5.22042 | 151 ft | 9 kts | 348° |
| 2026-05-04 18:12 | 60.29694 | 5.22019 | 151 ft | 11 kts | 356° |
| 2026-05-04 18:12 | 60.29734 | 5.22107 | 152 ft | 11 kts | 79° |
| 2026-05-04 18:12 | 60.29748 | 5.22276 | 152 ft | 13 kts | 81° |
| 2026-05-04 18:13 | 60.29765 | 5.22453 | 152 ft | 12 kts | 69° |
| 2026-05-04 18:13 | 60.29815 | 5.22585 | 152 ft | 12 kts | 37° |
| 2026-05-04 18:13 | 60.29938 | 5.22641 | 153 ft | 5 kts | 297° |
| 2026-05-04 18:14 | 60.29939 | 5.22634 | 153 ft | 0 kts | 278° |